createdAt,value
2023-02-14T00:03:27.493Z,102356
2023-02-14T00:09:24.901Z,102363
2023-02-14T00:15:14.201Z,102356
2023-02-14T00:21:09.506Z,102355
2023-02-14T00:27:24.273Z,102358
2023-02-14T00:33:18.733Z,102352
2023-02-14T00:39:50.513Z,102345
2023-02-14T00:45:56.863Z,102345
2023-02-14T00:52:03.485Z,102341
2023-02-14T00:58:10.683Z,102329
2023-02-14T01:04:22.274Z,102324
2023-02-14T01:10:38.735Z,102318
2023-02-14T01:17:05.972Z,102315
2023-02-14T01:29:23.429Z,102323
2023-02-14T01:35:21.865Z,102325
2023-02-14T01:41:26.301Z,102319
2023-02-14T01:47:48.834Z,102322
2023-02-14T01:53:54.810Z,102311
2023-02-14T01:59:52.501Z,102313
2023-02-14T02:05:50.170Z,102305
2023-02-14T02:12:10.782Z,102302
2023-02-14T02:18:07.497Z,102304
2023-02-14T02:24:02.495Z,102301
2023-02-14T02:30:00.664Z,102302
2023-02-14T02:36:11.784Z,102298
2023-02-14T02:42:05.583Z,102295
2023-02-14T02:48:07.247Z,102298
2023-02-14T02:54:04.281Z,102298
2023-02-14T03:00:21.566Z,102296
2023-02-14T03:06:31.814Z,102296
2023-02-14T03:12:22.937Z,102302
2023-02-14T03:18:42.069Z,102303
2023-02-14T03:38:15.670Z,102300
2023-02-14T03:44:25.940Z,102313
2023-02-14T03:50:38.969Z,102310
2023-02-14T04:02:38.786Z,102300
2023-02-14T04:08:44.130Z,102303
2023-02-14T04:14:59.500Z,102299
2023-02-14T04:26:48.607Z,102291
2023-02-14T04:32:41.703Z,102296
2023-02-14T04:38:55.082Z,102289
2023-02-14T04:45:00.776Z,102291
2023-02-14T04:51:03.145Z,102290
2023-02-14T04:57:08.011Z,102283
2023-02-14T05:02:59.958Z,102272
2023-02-14T05:09:02.656Z,102273
2023-02-14T05:14:53.344Z,102277
2023-02-14T05:20:48.010Z,102269
2023-02-14T05:27:04.949Z,102265
2023-02-14T05:33:08.444Z,102257
2023-02-14T05:39:06.758Z,102258
2023-02-14T05:45:01.658Z,102259
2023-02-14T05:50:53.919Z,102262
2023-02-14T05:56:50.800Z,102262
2023-02-14T06:02:42.458Z,102263
2023-02-14T06:08:37.164Z,102267
2023-02-14T06:14:29.834Z,102268
2023-02-14T06:20:27.029Z,102268
2023-02-14T06:33:09.022Z,102266
2023-02-14T06:39:00.863Z,102271
2023-02-14T06:44:59.769Z,102271
2023-02-14T06:50:52.609Z,102276
2023-02-14T07:03:12.712Z,102281
2023-02-14T07:09:06.476Z,102280
2023-02-14T07:15:01.988Z,102282
2023-02-14T07:21:04.894Z,102275
2023-02-14T07:26:58.422Z,102272
2023-02-14T07:32:47.232Z,102263
2023-02-14T07:38:41.025Z,102266
2023-02-14T07:44:35.507Z,102266
2023-02-14T07:50:27.321Z,102268
2023-02-14T07:56:23.335Z,102270
2023-02-14T08:02:15.984Z,102269
2023-02-14T08:08:14.170Z,102272
2023-02-14T08:14:05.051Z,102265
2023-02-14T08:19:57.390Z,102262
2023-02-14T08:26:01.777Z,102270
2023-02-14T08:31:57.067Z,102279
2023-02-14T08:37:56.506Z,102281
2023-02-14T08:43:55.230Z,102286
2023-02-14T08:49:48.189Z,102287
2023-02-14T08:55:40.512Z,102282
2023-02-14T09:01:35.476Z,102286
2023-02-14T09:07:25.956Z,102280
2023-02-14T09:13:18.869Z,102277
2023-02-14T09:19:14.233Z,102270
2023-02-14T09:25:06.844Z,102274
2023-02-14T09:31:00.467Z,102270
2023-02-14T09:36:52.777Z,102277
2023-02-14T09:42:45.261Z,102266
2023-02-14T09:48:37.416Z,102269
2023-02-14T09:54:30.868Z,102266
2023-02-14T10:00:22.525Z,102262
2023-02-14T10:12:33.353Z,102257
2023-02-14T10:18:43.063Z,102260
2023-02-14T10:24:39.723Z,102255
2023-02-14T10:30:41.823Z,102249
2023-02-14T10:36:40.976Z,102253
2023-02-14T10:42:34.219Z,102239
2023-02-14T10:48:27.908Z,102232
2023-02-14T10:54:30.219Z,102228
2023-02-14T11:00:20.460Z,102226
2023-02-14T11:06:11.253Z,102220
2023-02-14T11:12:02.281Z,102215
2023-02-14T11:17:51.988Z,102206
2023-02-14T11:23:42.981Z,102209
2023-02-14T11:29:33.535Z,102189
2023-02-14T11:35:23.495Z,102183
2023-02-14T11:41:14.238Z,102173
2023-02-14T11:47:08.834Z,102173
2023-02-14T11:53:00.323Z,102164
2023-02-14T11:58:50.439Z,102146
2023-02-14T12:04:50.486Z,102144
2023-02-14T12:10:41.850Z,102135
2023-02-14T12:16:36.568Z,102123
2023-02-14T12:22:30.064Z,102118
2023-02-14T12:28:19.837Z,102111
2023-02-14T12:34:11.973Z,102104
2023-02-14T12:40:03.806Z,102106
2023-02-14T12:45:55.216Z,102095
2023-02-14T12:51:48.352Z,102080
2023-02-14T12:57:41.107Z,102071
2023-02-14T13:03:34.025Z,102059
2023-02-14T13:09:24.678Z,102054
2023-02-14T13:15:16.588Z,102048
2023-02-14T13:21:09.019Z,102033
2023-02-14T13:27:01.811Z,102025
2023-02-14T13:32:53.601Z,102009
2023-02-14T13:38:45.170Z,102000
2023-02-14T13:44:37.324Z,102000
2023-02-14T13:50:29.354Z,101987
2023-02-14T13:56:22.269Z,101984
2023-02-14T14:02:15.475Z,101980
2023-02-14T14:08:08.255Z,101974
2023-02-14T14:13:59.184Z,101966
2023-02-14T14:19:51.955Z,101966
2023-02-14T14:25:43.777Z,101961
2023-02-14T14:31:36.230Z,101953
2023-02-14T14:37:28.366Z,101961
2023-02-14T14:43:23.131Z,101951
2023-02-14T14:49:16.014Z,101952
2023-02-14T14:55:06.870Z,101948
2023-02-14T15:01:05.887Z,101939
2023-02-14T15:06:58.005Z,101922
2023-02-14T15:12:52.732Z,101925
2023-02-14T15:18:45.155Z,101929
2023-02-14T15:24:42.710Z,101921
2023-02-14T15:30:35.433Z,101923
2023-02-14T15:36:28.605Z,101920
2023-02-14T15:42:21.678Z,101921
2023-02-14T15:48:12.460Z,101921
2023-02-14T15:54:03.534Z,101914
2023-02-14T15:59:55.520Z,101912
2023-02-14T16:05:47.236Z,101911
2023-02-14T16:11:38.425Z,101916
2023-02-14T16:17:31.264Z,101919
2023-02-14T16:23:21.806Z,101921
2023-02-14T16:29:13.038Z,101920
2023-02-14T16:35:04.071Z,101926
2023-02-14T16:40:54.746Z,101922
2023-02-14T16:46:46.427Z,101923
2023-02-14T16:52:36.735Z,101928
2023-02-14T16:58:27.217Z,101931
2023-02-14T17:04:17.079Z,101935
2023-02-14T17:10:06.953Z,101939
2023-02-14T17:15:57.415Z,101934
2023-02-14T17:21:49.242Z,101938
2023-02-14T17:27:39.310Z,101938
2023-02-14T17:33:30.363Z,101949
2023-02-14T17:39:21.234Z,101965
2023-02-14T17:45:11.201Z,101962
2023-02-14T17:51:02.607Z,101959
2023-02-14T17:56:53.695Z,101971
2023-02-14T18:02:46.225Z,101973
2023-02-14T18:08:36.952Z,101969
2023-02-14T18:14:27.408Z,101966
2023-02-14T18:20:17.592Z,101965
2023-02-14T18:26:07.293Z,101958
2023-02-14T18:31:58.234Z,101966
2023-02-14T18:37:48.291Z,101967
2023-02-14T18:43:39.083Z,101960
2023-02-14T18:49:28.614Z,101959
2023-02-14T18:55:27.146Z,101957
2023-02-14T19:01:19.638Z,101959
2023-02-14T19:07:10.042Z,101954
2023-02-14T19:13:00.131Z,101944
2023-02-14T19:18:50.788Z,101938
2023-02-14T19:24:42.122Z,101940
2023-02-14T19:30:31.689Z,101936
2023-02-14T19:36:21.657Z,101935
2023-02-14T19:42:13.990Z,101928
2023-02-14T19:48:05.021Z,101925
2023-02-14T19:53:56.791Z,101927
2023-02-14T19:59:45.524Z,101922
2023-02-14T20:05:35.457Z,101918
2023-02-14T20:11:25.995Z,101918
2023-02-14T20:17:17.443Z,101911
2023-02-14T20:23:08.240Z,101911
2023-02-14T20:28:58.829Z,101910
2023-02-14T20:34:50.319Z,101905
2023-02-14T20:40:43.090Z,101900
2023-02-14T20:46:32.782Z,101893
2023-02-14T20:52:24.446Z,101896
2023-02-14T20:58:14.956Z,101895
2023-02-14T21:04:05.467Z,101896
2023-02-14T21:09:55.902Z,101893
2023-02-14T21:15:45.997Z,101889
2023-02-14T21:21:36.639Z,101892
2023-02-14T21:27:26.456Z,101888
2023-02-14T21:33:16.404Z,101889
2023-02-14T21:39:06.491Z,101892
2023-02-14T21:44:55.520Z,101891
2023-02-14T21:50:47.553Z,101888
2023-02-14T21:56:40.297Z,101882
2023-02-14T22:02:30.864Z,101877
2023-02-14T22:08:21.753Z,101866
2023-02-14T22:14:14.588Z,101865
2023-02-14T22:20:06.100Z,101859
2023-02-14T22:25:54.345Z,101859
2023-02-14T22:31:45.693Z,101866
2023-02-14T22:37:36.667Z,101861
2023-02-14T22:43:27.583Z,101861
2023-02-14T22:49:19.324Z,101855
2023-02-14T22:55:09.764Z,101859
2023-02-14T23:00:59.533Z,101851
2023-02-14T23:06:49.858Z,101849
2023-02-14T23:12:40.439Z,101845
2023-02-14T23:18:30.842Z,101854
2023-02-14T23:24:25.220Z,101857
2023-02-14T23:30:17.222Z,101849
2023-02-14T23:36:08.437Z,101854
2023-02-14T23:42:01.618Z,101842
2023-02-14T23:47:56.924Z,101836
2023-02-14T23:53:53.258Z,101843
2023-02-14T23:59:52.343Z,101832
